KEUF

Details ICAO KEUF
Name WEEDON FLD
Region United States
Timezone America/Chicago (UTC-6.0)
Plans Departing 0
Arriving 0
Stats Elevation 285 ft / 87 m (AMSL)
Location 31.951320° -85.128925°
Runways 1
Magnetic Variation 4.388° W
Sunrise 2017-12-12 12:33:06 UTC / 2017-12-12 06:33:06 Local
Sunset 2017-12-12 22:38:28 UTC / 2017-12-12 16:38:28 Local
Advertisement - Login to hide

Runways

ID Width Length Bearing (true) Bearing (mag) Surface Threshold Offset Overrun Length
18 100 ft / 30 m 5,015 ft / 1,529 m 183.60° 187.99° Asphalt 0 ft / 0 m 0 ft / 0 m
36 100 ft / 30 m 5,015 ft / 1,529 m 3.60° 7.99° Asphalt 0 ft / 0 m 0 ft / 0 m

Map

Weather


0- 5 10 15 20 25 30 35+ Temperature / ° C

Clouds and Precipitation
Forecast for 2017-12-12 06:00 UTC. Updated an hour ago

Ground ~20,000 ft ~40,000 ft Winds

METAR

KEUF 120558Z AUTO 22005KT 10SM CLR 09/04 A3000 RMK AO2 SLP156 T00890044 10111 20067 401941022 58019

TAF

Not found

Frequencies

Unicom 122.80 MHz CTAF/UNICOM
Approach 125.50 MHz ATLANTA APP/DEP
Clearance 134.25 MHz ATLANTA CLNC DEL
Approach 126.55 MHz ATLANTA APP/DEP
Warning: Do not use this data for real-world aviation or navigation. No guarantee of current accuracy is given.